sensor_id;sensor_type;location;lat;lon;timestamp;P1;durP1;ratioP1;P2;durP2;ratioP2
39680;SDS011;26327;42.550;23.120;2023-07-20T00:01:20;7.82;;;2.50;;
39680;SDS011;26327;42.550;23.120;2023-07-20T00:03:46;7.88;;;2.00;;
39680;SDS011;26327;42.550;23.120;2023-07-20T00:06:19;7.72;;;2.20;;
39680;SDS011;26327;42.550;23.120;2023-07-20T00:08:45;9.02;;;2.85;;
39680;SDS011;26327;42.550;23.120;2023-07-20T00:11:10;8.13;;;2.50;;
39680;SDS011;26327;42.550;23.120;2023-07-20T00:13:38;8.30;;;2.40;;
39680;SDS011;26327;42.550;23.120;2023-07-20T00:16:03;6.68;;;2.30;;
39680;SDS011;26327;42.550;23.120;2023-07-20T00:18:29;8.27;;;2.17;;
39680;SDS011;26327;42.550;23.120;2023-07-20T00:20:54;6.47;;;2.42;;
39680;SDS011;26327;42.550;23.120;2023-07-20T00:23:20;9.95;;;2.83;;
39680;SDS011;26327;42.550;23.120;2023-07-20T00:25:47;6.53;;;2.20;;
39680;SDS011;26327;42.550;23.120;2023-07-20T00:28:13;7.03;;;2.70;;
39680;SDS011;26327;42.550;23.120;2023-07-20T00:30:38;7.72;;;2.60;;
39680;SDS011;26327;42.550;23.120;2023-07-20T00:33:04;7.13;;;2.85;;
39680;SDS011;26327;42.550;23.120;2023-07-20T00:35:29;6.22;;;2.60;;
39680;SDS011;26327;42.550;23.120;2023-07-20T00:37:55;6.88;;;2.47;;
39680;SDS011;26327;42.550;23.120;2023-07-20T00:40:20;8.05;;;2.63;;
39680;SDS011;26327;42.550;23.120;2023-07-20T00:42:45;10.50;;;2.22;;
39680;SDS011;26327;42.550;23.120;2023-07-20T00:45:11;8.82;;;2.53;;
39680;SDS011;26327;42.550;23.120;2023-07-20T00:47:36;6.82;;;2.13;;
39680;SDS011;26327;42.550;23.120;2023-07-20T00:50:02;6.32;;;2.85;;
39680;SDS011;26327;42.550;23.120;2023-07-20T00:55:15;7.40;;;3.10;;
39680;SDS011;26327;42.550;23.120;2023-07-20T00:57:41;11.32;;;2.70;;
39680;SDS011;26327;42.550;23.120;2023-07-20T01:00:06;11.45;;;3.10;;
39680;SDS011;26327;42.550;23.120;2023-07-20T01:02:32;4.28;;;2.45;;
39680;SDS011;26327;42.550;23.120;2023-07-20T01:04:58;4.88;;;2.60;;
39680;SDS011;26327;42.550;23.120;2023-07-20T01:07:25;10.55;;;2.90;;
39680;SDS011;26327;42.550;23.120;2023-07-20T01:12:47;10.95;;;2.67;;
39680;SDS011;26327;42.550;23.120;2023-07-20T01:15:16;7.93;;;2.85;;
39680;SDS011;26327;42.550;23.120;2023-07-20T01:17:41;9.20;;;2.75;;
39680;SDS011;26327;42.550;23.120;2023-07-20T01:20:07;10.20;;;3.22;;
39680;SDS011;26327;42.550;23.120;2023-07-20T01:22:43;8.98;;;3.10;;
39680;SDS011;26327;42.550;23.120;2023-07-20T01:33:17;8.32;;;2.60;;
39680;SDS011;26327;42.550;23.120;2023-07-20T01:35:44;7.97;;;3.38;;
39680;SDS011;26327;42.550;23.120;2023-07-20T01:38:13;9.03;;;2.63;;
39680;SDS011;26327;42.550;23.120;2023-07-20T01:40:39;12.65;;;2.90;;
39680;SDS011;26327;42.550;23.120;2023-07-20T01:43:05;8.30;;;2.65;;
39680;SDS011;26327;42.550;23.120;2023-07-20T01:45:31;11.18;;;2.67;;
39680;SDS011;26327;42.550;23.120;2023-07-20T01:47:57;7.55;;;3.03;;
39680;SDS011;26327;42.550;23.120;2023-07-20T01:50:22;8.90;;;2.65;;
39680;SDS011;26327;42.550;23.120;2023-07-20T01:52:47;8.98;;;3.05;;
39680;SDS011;26327;42.550;23.120;2023-07-20T01:55:13;9.07;;;2.88;;
39680;SDS011;26327;42.550;23.120;2023-07-20T02:00:50;11.32;;;2.88;;
39680;SDS011;26327;42.550;23.120;2023-07-20T02:03:15;8.65;;;2.72;;
39680;SDS011;26327;42.550;23.120;2023-07-20T02:05:45;9.98;;;3.40;;
39680;SDS011;26327;42.550;23.120;2023-07-20T02:08:10;7.57;;;3.20;;
39680;SDS011;26327;42.550;23.120;2023-07-20T02:10:36;5.88;;;2.90;;
39680;SDS011;26327;42.550;23.120;2023-07-20T02:13:01;7.93;;;3.05;;
39680;SDS011;26327;42.550;23.120;2023-07-20T02:15:27;5.78;;;3.13;;
39680;SDS011;26327;42.550;23.120;2023-07-20T02:17:53;9.07;;;3.13;;
39680;SDS011;26327;42.550;23.120;2023-07-20T02:20:19;10.85;;;3.22;;
39680;SDS011;26327;42.550;23.120;2023-07-20T02:22:44;7.93;;;3.30;;
39680;SDS011;26327;42.550;23.120;2023-07-20T02:25:10;13.80;;;3.50;;
39680;SDS011;26327;42.550;23.120;2023-07-20T02:27:35;9.15;;;3.42;;
39680;SDS011;26327;42.550;23.120;2023-07-20T02:30:02;9.07;;;3.28;;
39680;SDS011;26327;42.550;23.120;2023-07-20T02:32:28;8.95;;;3.10;;
39680;SDS011;26327;42.550;23.120;2023-07-20T02:34:54;7.15;;;3.22;;
39680;SDS011;26327;42.550;23.120;2023-07-20T02:37:20;6.53;;;3.03;;
39680;SDS011;26327;42.550;23.120;2023-07-20T02:39:45;11.50;;;3.63;;
39680;SDS011;26327;42.550;23.120;2023-07-20T02:42:10;8.85;;;4.00;;
39680;SDS011;26327;42.550;23.120;2023-07-20T02:44:36;8.98;;;3.10;;
39680;SDS011;26327;42.550;23.120;2023-07-20T02:47:01;8.85;;;3.50;;
39680;SDS011;26327;42.550;23.120;2023-07-20T02:49:27;10.35;;;3.78;;
39680;SDS011;26327;42.550;23.120;2023-07-20T02:51:53;6.50;;;3.42;;
39680;SDS011;26327;42.550;23.120;2023-07-20T02:54:18;9.13;;;3.60;;
39680;SDS011;26327;42.550;23.120;2023-07-20T02:56:43;10.82;;;3.83;;
39680;SDS011;26327;42.550;23.120;2023-07-20T02:59:09;13.82;;;3.75;;
39680;SDS011;26327;42.550;23.120;2023-07-20T03:01:34;12.93;;;3.92;;
39680;SDS011;26327;42.550;23.120;2023-07-20T03:04:00;12.07;;;3.70;;
39680;SDS011;26327;42.550;23.120;2023-07-20T03:06:25;7.13;;;3.65;;
39680;SDS011;26327;42.550;23.120;2023-07-20T03:08:51;11.00;;;4.00;;
39680;SDS011;26327;42.550;23.120;2023-07-20T03:11:18;7.43;;;3.70;;
39680;SDS011;26327;42.550;23.120;2023-07-20T03:13:45;8.65;;;3.80;;
39680;SDS011;26327;42.550;23.120;2023-07-20T03:16:12;8.00;;;3.90;;
39680;SDS011;26327;42.550;23.120;2023-07-20T03:18:42;9.55;;;4.18;;
39680;SDS011;26327;42.550;23.120;2023-07-20T03:21:08;7.63;;;4.07;;
39680;SDS011;26327;42.550;23.120;2023-07-20T03:23:36;11.48;;;4.20;;
39680;SDS011;26327;42.550;23.120;2023-07-20T03:26:02;6.32;;;3.63;;
39680;SDS011;26327;42.550;23.120;2023-07-20T03:28:27;10.65;;;4.00;;
39680;SDS011;26327;42.550;23.120;2023-07-20T03:30:53;12.93;;;4.03;;
39680;SDS011;26327;42.550;23.120;2023-07-20T03:33:21;10.15;;;4.22;;
39680;SDS011;26327;42.550;23.120;2023-07-20T03:35:55;8.30;;;4.07;;
39680;SDS011;26327;42.550;23.120;2023-07-20T03:38:21;11.23;;;4.30;;
39680;SDS011;26327;42.550;23.120;2023-07-20T03:43:21;11.13;;;4.30;;
39680;SDS011;26327;42.550;23.120;2023-07-20T03:45:47;8.23;;;4.30;;
39680;SDS011;26327;42.550;23.120;2023-07-20T03:48:18;11.77;;;4.68;;
39680;SDS011;26327;42.550;23.120;2023-07-20T03:50:46;9.10;;;4.57;;
39680;SDS011;26327;42.550;23.120;2023-07-20T03:53:13;10.52;;;4.63;;
39680;SDS011;26327;42.550;23.120;2023-07-20T03:55:45;9.88;;;4.45;;
39680;SDS011;26327;42.550;23.120;2023-07-20T03:58:14;10.18;;;5.03;;
39680;SDS011;26327;42.550;23.120;2023-07-20T04:00:40;10.10;;;4.55;;
39680;SDS011;26327;42.550;23.120;2023-07-20T04:03:08;13.52;;;5.38;;
39680;SDS011;26327;42.550;23.120;2023-07-20T04:05:33;12.40;;;5.63;;
39680;SDS011;26327;42.550;23.120;2023-07-20T04:07:59;11.93;;;5.50;;
39680;SDS011;26327;42.550;23.120;2023-07-20T04:10:24;10.18;;;5.18;;
39680;SDS011;26327;42.550;23.120;2023-07-20T04:12:49;11.63;;;5.40;;
39680;SDS011;26327;42.550;23.120;2023-07-20T04:15:15;17.83;;;5.18;;
39680;SDS011;26327;42.550;23.120;2023-07-20T04:17:40;9.70;;;5.22;;
39680;SDS011;26327;42.550;23.120;2023-07-20T04:20:06;12.68;;;5.32;;
39680;SDS011;26327;42.550;23.120;2023-07-20T04:22:33;15.35;;;5.18;;
39680;SDS011;26327;42.550;23.120;2023-07-20T04:24:58;11.23;;;5.57;;
39680;SDS011;26327;42.550;23.120;2023-07-20T04:27:24;12.23;;;5.75;;
39680;SDS011;26327;42.550;23.120;2023-07-20T04:29:49;18.23;;;5.65;;
39680;SDS011;26327;42.550;23.120;2023-07-20T04:32:15;14.52;;;5.65;;
39680;SDS011;26327;42.550;23.120;2023-07-20T04:34:40;15.15;;;5.28;;
39680;SDS011;26327;42.550;23.120;2023-07-20T04:37:06;13.20;;;5.75;;
39680;SDS011;26327;42.550;23.120;2023-07-20T04:39:31;15.98;;;6.13;;
39680;SDS011;26327;42.550;23.120;2023-07-20T04:41:57;10.98;;;5.00;;
39680;SDS011;26327;42.550;23.120;2023-07-20T04:44:23;10.20;;;5.25;;
39680;SDS011;26327;42.550;23.120;2023-07-20T04:46:48;13.40;;;5.45;;
39680;SDS011;26327;42.550;23.120;2023-07-20T04:49:13;12.57;;;5.00;;
39680;SDS011;26327;42.550;23.120;2023-07-20T04:51:39;10.25;;;4.47;;
39680;SDS011;26327;42.550;23.120;2023-07-20T04:54:05;8.57;;;4.78;;
39680;SDS011;26327;42.550;23.120;2023-07-20T04:56:31;12.50;;;4.70;;
39680;SDS011;26327;42.550;23.120;2023-07-20T04:58:56;15.10;;;5.90;;
39680;SDS011;26327;42.550;23.120;2023-07-20T05:01:22;16.52;;;5.85;;
39680;SDS011;26327;42.550;23.120;2023-07-20T05:03:47;13.10;;;5.68;;
39680;SDS011;26327;42.550;23.120;2023-07-20T05:06:13;17.15;;;5.90;;
39680;SDS011;26327;42.550;23.120;2023-07-20T05:08:38;12.18;;;5.47;;
39680;SDS011;26327;42.550;23.120;2023-07-20T05:11:04;17.50;;;6.45;;
39680;SDS011;26327;42.550;23.120;2023-07-20T05:13:29;17.60;;;6.85;;
39680;SDS011;26327;42.550;23.120;2023-07-20T05:15:55;10.90;;;5.18;;
39680;SDS011;26327;42.550;23.120;2023-07-20T05:18:20;15.73;;;5.90;;
39680;SDS011;26327;42.550;23.120;2023-07-20T05:20:49;24.67;;;6.45;;
39680;SDS011;26327;42.550;23.120;2023-07-20T05:23:16;17.08;;;6.03;;
39680;SDS011;26327;42.550;23.120;2023-07-20T05:25:42;10.13;;;6.13;;
39680;SDS011;26327;42.550;23.120;2023-07-20T05:28:08;13.70;;;5.60;;
39680;SDS011;26327;42.550;23.120;2023-07-20T05:30:33;14.23;;;6.68;;
39680;SDS011;26327;42.550;23.120;2023-07-20T05:32:59;13.40;;;5.70;;
39680;SDS011;26327;42.550;23.120;2023-07-20T05:35:25;10.48;;;5.22;;
39680;SDS011;26327;42.550;23.120;2023-07-20T05:37:51;14.90;;;5.25;;
39680;SDS011;26327;42.550;23.120;2023-07-20T05:40:16;16.90;;;5.65;;
39680;SDS011;26327;42.550;23.120;2023-07-20T05:42:45;13.40;;;5.28;;
39680;SDS011;26327;42.550;23.120;2023-07-20T05:45:11;10.65;;;5.60;;
39680;SDS011;26327;42.550;23.120;2023-07-20T05:47:37;15.88;;;5.75;;
39680;SDS011;26327;42.550;23.120;2023-07-20T05:50:03;10.68;;;5.20;;
39680;SDS011;26327;42.550;23.120;2023-07-20T05:52:28;12.55;;;5.22;;
39680;SDS011;26327;42.550;23.120;2023-07-20T05:54:54;20.35;;;5.78;;
39680;SDS011;26327;42.550;23.120;2023-07-20T05:57:20;14.80;;;4.70;;
39680;SDS011;26327;42.550;23.120;2023-07-20T05:59:45;10.30;;;5.20;;
39680;SDS011;26327;42.550;23.120;2023-07-20T06:02:11;20.30;;;5.35;;
39680;SDS011;26327;42.550;23.120;2023-07-20T06:04:37;14.55;;;5.20;;
39680;SDS011;26327;42.550;23.120;2023-07-20T06:07:03;8.90;;;5.22;;
39680;SDS011;26327;42.550;23.120;2023-07-20T06:09:29;17.02;;;5.90;;
39680;SDS011;26327;42.550;23.120;2023-07-20T06:11:55;13.80;;;5.65;;
39680;SDS011;26327;42.550;23.120;2023-07-20T06:14:21;12.70;;;5.00;;
39680;SDS011;26327;42.550;23.120;2023-07-20T06:16:47;12.25;;;5.00;;
39680;SDS011;26327;42.550;23.120;2023-07-20T06:19:12;10.75;;;4.47;;
39680;SDS011;26327;42.550;23.120;2023-07-20T06:21:38;14.55;;;5.38;;
39680;SDS011;26327;42.550;23.120;2023-07-20T06:24:04;11.57;;;4.85;;
39680;SDS011;26327;42.550;23.120;2023-07-20T06:26:29;14.00;;;5.22;;
39680;SDS011;26327;42.550;23.120;2023-07-20T06:28:55;15.00;;;6.50;;
39680;SDS011;26327;42.550;23.120;2023-07-20T06:31:21;13.68;;;5.30;;
39680;SDS011;26327;42.550;23.120;2023-07-20T06:33:46;11.35;;;5.68;;
39680;SDS011;26327;42.550;23.120;2023-07-20T06:36:12;16.73;;;5.10;;
39680;SDS011;26327;42.550;23.120;2023-07-20T06:38:37;10.93;;;4.70;;
39680;SDS011;26327;42.550;23.120;2023-07-20T06:41:03;14.10;;;5.78;;
39680;SDS011;26327;42.550;23.120;2023-07-20T06:43:28;16.88;;;5.78;;
39680;SDS011;26327;42.550;23.120;2023-07-20T06:45:54;10.43;;;4.50;;
39680;SDS011;26327;42.550;23.120;2023-07-20T06:48:19;18.55;;;5.20;;
39680;SDS011;26327;42.550;23.120;2023-07-20T06:50:45;13.38;;;5.25;;
39680;SDS011;26327;42.550;23.120;2023-07-20T06:53:10;18.52;;;5.15;;
39680;SDS011;26327;42.550;23.120;2023-07-20T06:55:35;14.73;;;5.30;;
39680;SDS011;26327;42.550;23.120;2023-07-20T06:58:01;10.80;;;5.10;;
39680;SDS011;26327;42.550;23.120;2023-07-20T07:00:26;14.07;;;5.20;;
39680;SDS011;26327;42.550;23.120;2023-07-20T07:02:52;19.92;;;6.25;;
39680;SDS011;26327;42.550;23.120;2023-07-20T07:05:17;22.95;;;6.07;;
39680;SDS011;26327;42.550;23.120;2023-07-20T07:07:43;23.95;;;6.57;;
39680;SDS011;26327;42.550;23.120;2023-07-20T07:10:08;19.52;;;6.43;;
39680;SDS011;26327;42.550;23.120;2023-07-20T07:12:34;24.48;;;6.72;;
39680;SDS011;26327;42.550;23.120;2023-07-20T07:15:00;17.08;;;5.90;;
39680;SDS011;26327;42.550;23.120;2023-07-20T07:17:26;25.80;;;7.05;;
39680;SDS011;26327;42.550;23.120;2023-07-20T07:19:52;19.33;;;6.85;;
39680;SDS011;26327;42.550;23.120;2023-07-20T07:22:21;31.35;;;7.88;;
39680;SDS011;26327;42.550;23.120;2023-07-20T07:24:47;27.05;;;7.00;;
39680;SDS011;26327;42.550;23.120;2023-07-20T07:27:13;25.95;;;7.47;;
39680;SDS011;26327;42.550;23.120;2023-07-20T07:29:41;31.20;;;7.32;;
39680;SDS011;26327;42.550;23.120;2023-07-20T07:32:07;37.95;;;8.40;;
39680;SDS011;26327;42.550;23.120;2023-07-20T07:34:32;28.10;;;7.35;;
39680;SDS011;26327;42.550;23.120;2023-07-20T07:36:59;26.02;;;7.88;;
39680;SDS011;26327;42.550;23.120;2023-07-20T07:39:25;28.25;;;7.45;;
39680;SDS011;26327;42.550;23.120;2023-07-20T07:41:50;30.67;;;8.13;;
39680;SDS011;26327;42.550;23.120;2023-07-20T07:44:16;40.30;;;9.15;;
39680;SDS011;26327;42.550;23.120;2023-07-20T07:46:42;43.28;;;11.02;;
39680;SDS011;26327;42.550;23.120;2023-07-20T07:49:08;46.05;;;10.63;;
39680;SDS011;26327;42.550;23.120;2023-07-20T07:51:33;60.03;;;11.38;;
39680;SDS011;26327;42.550;23.120;2023-07-20T07:53:59;47.63;;;10.13;;
39680;SDS011;26327;42.550;23.120;2023-07-20T07:56:24;47.33;;;11.05;;
39680;SDS011;26327;42.550;23.120;2023-07-20T07:58:50;46.13;;;10.38;;
39680;SDS011;26327;42.550;23.120;2023-07-20T08:01:16;23.52;;;7.28;;
39680;SDS011;26327;42.550;23.120;2023-07-20T08:03:44;27.63;;;7.65;;
39680;SDS011;26327;42.550;23.120;2023-07-20T08:06:12;26.80;;;8.40;;
39680;SDS011;26327;42.550;23.120;2023-07-20T08:08:37;32.17;;;9.90;;
39680;SDS011;26327;42.550;23.120;2023-07-20T08:11:03;22.58;;;7.78;;
39680;SDS011;26327;42.550;23.120;2023-07-20T08:13:29;21.35;;;6.68;;
39680;SDS011;26327;42.550;23.120;2023-07-20T08:15:54;26.40;;;6.57;;
39680;SDS011;26327;42.550;23.120;2023-07-20T08:18:20;15.00;;;4.20;;
39680;SDS011;26327;42.550;23.120;2023-07-20T08:20:46;14.73;;;4.32;;
39680;SDS011;26327;42.550;23.120;2023-07-20T08:23:12;10.13;;;3.70;;
39680;SDS011;26327;42.550;23.120;2023-07-20T08:25:38;7.40;;;3.70;;
39680;SDS011;26327;42.550;23.120;2023-07-20T08:28:07;10.48;;;3.20;;
39680;SDS011;26327;42.550;23.120;2023-07-20T08:30:39;7.85;;;3.38;;
39680;SDS011;26327;42.550;23.120;2023-07-20T08:33:15;8.75;;;3.63;;
39680;SDS011;26327;42.550;23.120;2023-07-20T08:35:42;6.93;;;3.45;;
39680;SDS011;26327;42.550;23.120;2023-07-20T08:38:08;11.48;;;3.70;;
39680;SDS011;26327;42.550;23.120;2023-07-20T08:40:34;12.43;;;3.90;;
39680;SDS011;26327;42.550;23.120;2023-07-20T08:43:04;13.07;;;3.63;;
39680;SDS011;26327;42.550;23.120;2023-07-20T08:45:30;13.07;;;4.25;;
39680;SDS011;26327;42.550;23.120;2023-07-20T08:47:59;9.73;;;3.35;;
39680;SDS011;26327;42.550;23.120;2023-07-20T08:50:28;13.15;;;3.70;;
39680;SDS011;26327;42.550;23.120;2023-07-20T08:52:56;12.30;;;3.65;;
39680;SDS011;26327;42.550;23.120;2023-07-20T08:55:23;7.95;;;3.25;;
39680;SDS011;26327;42.550;23.120;2023-07-20T08:57:58;9.65;;;3.45;;
39680;SDS011;26327;42.550;23.120;2023-07-20T09:00:25;12.85;;;3.80;;
39680;SDS011;26327;42.550;23.120;2023-07-20T09:02:54;9.90;;;3.15;;
39680;SDS011;26327;42.550;23.120;2023-07-20T09:05:21;10.68;;;3.65;;
39680;SDS011;26327;42.550;23.120;2023-07-20T09:07:48;6.75;;;3.25;;
39680;SDS011;26327;42.550;23.120;2023-07-20T09:10:14;6.95;;;3.38;;
39680;SDS011;26327;42.550;23.120;2023-07-20T09:12:40;6.68;;;3.67;;
39680;SDS011;26327;42.550;23.120;2023-07-20T09:15:07;9.27;;;3.00;;
39680;SDS011;26327;42.550;23.120;2023-07-20T09:17:33;8.63;;;3.10;;
39680;SDS011;26327;42.550;23.120;2023-07-20T09:20:02;13.32;;;3.10;;
39680;SDS011;26327;42.550;23.120;2023-07-20T09:22:36;8.30;;;3.13;;
39680;SDS011;26327;42.550;23.120;2023-07-20T09:27:39;10.65;;;3.42;;
39680;SDS011;26327;42.550;23.120;2023-07-20T09:30:06;10.65;;;3.92;;
39680;SDS011;26327;42.550;23.120;2023-07-20T09:32:54;12.48;;;3.38;;
39680;SDS011;26327;42.550;23.120;2023-07-20T09:35:20;11.40;;;3.25;;
39680;SDS011;26327;42.550;23.120;2023-07-20T09:37:47;6.30;;;2.72;;
39680;SDS011;26327;42.550;23.120;2023-07-20T09:40:17;11.85;;;3.22;;
39680;SDS011;26327;42.550;23.120;2023-07-20T09:42:43;8.30;;;2.90;;
39680;SDS011;26327;42.550;23.120;2023-07-20T09:45:09;8.15;;;3.25;;
39680;SDS011;26327;42.550;23.120;2023-07-20T09:47:35;8.73;;;3.53;;
39680;SDS011;26327;42.550;23.120;2023-07-20T09:50:03;7.85;;;2.80;;
39680;SDS011;26327;42.550;23.120;2023-07-20T09:52:29;9.05;;;3.33;;
39680;SDS011;26327;42.550;23.120;2023-07-20T09:54:54;10.27;;;3.50;;
39680;SDS011;26327;42.550;23.120;2023-07-20T09:57:20;9.82;;;3.40;;
39680;SDS011;26327;42.550;23.120;2023-07-20T09:59:46;12.35;;;4.22;;
39680;SDS011;26327;42.550;23.120;2023-07-20T10:02:20;9.95;;;3.70;;
39680;SDS011;26327;42.550;23.120;2023-07-20T10:04:51;9.23;;;3.55;;
39680;SDS011;26327;42.550;23.120;2023-07-20T10:07:18;13.57;;;3.47;;
39680;SDS011;26327;42.550;23.120;2023-07-20T10:09:46;9.38;;;3.53;;
39680;SDS011;26327;42.550;23.120;2023-07-20T10:12:13;10.93;;;3.70;;
39680;SDS011;26327;42.550;23.120;2023-07-20T10:14:41;9.63;;;3.78;;
39680;SDS011;26327;42.550;23.120;2023-07-20T10:17:14;6.82;;;3.33;;
39680;SDS011;26327;42.550;23.120;2023-07-20T10:19:42;7.10;;;3.33;;
39680;SDS011;26327;42.550;23.120;2023-07-20T10:22:17;8.32;;;3.00;;
39680;SDS011;26327;42.550;23.120;2023-07-20T10:24:48;7.63;;;2.90;;
39680;SDS011;26327;42.550;23.120;2023-07-20T10:27:14;12.00;;;3.35;;
39680;SDS011;26327;42.550;23.120;2023-07-20T10:29:40;8.85;;;3.28;;
39680;SDS011;26327;42.550;23.120;2023-07-20T10:32:07;7.35;;;2.67;;
39680;SDS011;26327;42.550;23.120;2023-07-20T10:34:34;10.13;;;3.47;;
39680;SDS011;26327;42.550;23.120;2023-07-20T10:36:59;9.25;;;3.20;;
39680;SDS011;26327;42.550;23.120;2023-07-20T10:39:25;9.00;;;2.92;;
39680;SDS011;26327;42.550;23.120;2023-07-20T10:41:59;9.52;;;4.05;;
39680;SDS011;26327;42.550;23.120;2023-07-20T10:44:28;8.23;;;2.92;;
39680;SDS011;26327;42.550;23.120;2023-07-20T10:47:01;11.60;;;3.45;;
39680;SDS011;26327;42.550;23.120;2023-07-20T10:49:27;9.05;;;3.58;;
39680;SDS011;26327;42.550;23.120;2023-07-20T10:51:57;13.57;;;3.95;;
39680;SDS011;26327;42.550;23.120;2023-07-20T10:56:51;8.23;;;3.20;;
39680;SDS011;26327;42.550;23.120;2023-07-20T10:59:18;8.77;;;3.55;;
39680;SDS011;26327;42.550;23.120;2023-07-20T11:01:50;7.20;;;3.45;;
39680;SDS011;26327;42.550;23.120;2023-07-20T11:04:21;9.18;;;3.33;;
39680;SDS011;26327;42.550;23.120;2023-07-20T11:07:03;10.77;;;3.70;;
39680;SDS011;26327;42.550;23.120;2023-07-20T11:09:33;9.57;;;4.00;;
39680;SDS011;26327;42.550;23.120;2023-07-20T11:12:12;10.35;;;3.20;;
39680;SDS011;26327;42.550;23.120;2023-07-20T11:14:42;7.00;;;3.58;;
39680;SDS011;26327;42.550;23.120;2023-07-20T11:17:14;9.93;;;3.45;;
39680;SDS011;26327;42.550;23.120;2023-07-20T11:19:41;11.10;;;3.50;;
39680;SDS011;26327;42.550;23.120;2023-07-20T11:22:06;7.25;;;3.22;;
39680;SDS011;26327;42.550;23.120;2023-07-20T11:24:39;18.60;;;4.75;;
39680;SDS011;26327;42.550;23.120;2023-07-20T11:50:17;43.50;;;17.92;;
39680;SDS011;26327;42.550;23.120;2023-07-20T11:52:42;14.60;;;5.25;;
39680;SDS011;26327;42.550;23.120;2023-07-20T11:55:08;11.65;;;5.30;;
39680;SDS011;26327;42.550;23.120;2023-07-20T11:57:34;10.27;;;5.22;;
39680;SDS011;26327;42.550;23.120;2023-07-20T12:00:03;9.52;;;5.15;;
39680;SDS011;26327;42.550;23.120;2023-07-20T12:02:34;11.68;;;5.82;;
39680;SDS011;26327;42.550;23.120;2023-07-20T12:05:00;11.35;;;5.40;;
39680;SDS011;26327;42.550;23.120;2023-07-20T12:07:27;9.50;;;5.63;;
39680;SDS011;26327;42.550;23.120;2023-07-20T12:10:06;12.32;;;5.72;;
39680;SDS011;26327;42.550;23.120;2023-07-20T12:12:38;17.27;;;6.47;;
39680;SDS011;26327;42.550;23.120;2023-07-20T12:15:42;13.05;;;6.60;;
39680;SDS011;26327;42.550;23.120;2023-07-20T12:18:01;18.55;;;8.70;;
39680;SDS011;26327;42.550;23.120;2023-07-20T12:23:07;11.95;;;5.75;;
39680;SDS011;26327;42.550;23.120;2023-07-20T12:25:41;18.30;;;7.57;;
39680;SDS011;26327;42.550;23.120;2023-07-20T12:28:08;9.95;;;5.95;;
39680;SDS011;26327;42.550;23.120;2023-07-20T12:30:39;13.30;;;6.72;;
39680;SDS011;26327;42.550;23.120;2023-07-20T12:33:05;17.27;;;6.75;;
39680;SDS011;26327;42.550;23.120;2023-07-20T12:35:31;14.88;;;7.20;;
39680;SDS011;26327;42.550;23.120;2023-07-20T12:37:57;15.02;;;7.30;;
39680;SDS011;26327;42.550;23.120;2023-07-20T12:40:23;12.48;;;6.35;;
39680;SDS011;26327;42.550;23.120;2023-07-20T12:42:49;15.05;;;5.63;;
39680;SDS011;26327;42.550;23.120;2023-07-20T12:45:14;14.02;;;5.53;;
39680;SDS011;26327;42.550;23.120;2023-07-20T12:47:40;12.82;;;5.80;;
39680;SDS011;26327;42.550;23.120;2023-07-20T12:50:08;17.10;;;8.02;;
39680;SDS011;26327;42.550;23.120;2023-07-20T12:52:37;11.75;;;5.57;;
39680;SDS011;26327;42.550;23.120;2023-07-20T12:55:04;16.95;;;6.15;;
39680;SDS011;26327;42.550;23.120;2023-07-20T12:57:31;17.33;;;6.60;;
39680;SDS011;26327;42.550;23.120;2023-07-20T12:59:56;11.85;;;5.30;;
39680;SDS011;26327;42.550;23.120;2023-07-20T13:02:22;12.63;;;4.50;;
39680;SDS011;26327;42.550;23.120;2023-07-20T13:04:47;11.55;;;5.43;;
39680;SDS011;26327;42.550;23.120;2023-07-20T13:07:12;13.77;;;6.32;;
39680;SDS011;26327;42.550;23.120;2023-07-20T13:09:38;12.18;;;5.55;;
39680;SDS011;26327;42.550;23.120;2023-07-20T13:12:03;12.52;;;5.30;;
39680;SDS011;26327;42.550;23.120;2023-07-20T13:14:28;8.90;;;5.00;;
39680;SDS011;26327;42.550;23.120;2023-07-20T13:16:57;14.18;;;4.75;;
39680;SDS011;26327;42.550;23.120;2023-07-20T13:19:22;10.85;;;5.13;;
39680;SDS011;26327;42.550;23.120;2023-07-20T13:21:48;11.80;;;4.68;;
39680;SDS011;26327;42.550;23.120;2023-07-20T13:24:13;20.50;;;6.82;;
39680;SDS011;26327;42.550;23.120;2023-07-20T13:26:39;10.57;;;4.57;;
39680;SDS011;26327;42.550;23.120;2023-07-20T13:29:04;10.55;;;4.63;;
39680;SDS011;26327;42.550;23.120;2023-07-20T13:31:30;12.45;;;6.03;;
39680;SDS011;26327;42.550;23.120;2023-07-20T13:33:55;10.43;;;4.88;;
39680;SDS011;26327;42.550;23.120;2023-07-20T13:36:21;10.60;;;4.40;;
39680;SDS011;26327;42.550;23.120;2023-07-20T13:38:48;9.27;;;4.43;;
39680;SDS011;26327;42.550;23.120;2023-07-20T13:41:13;8.77;;;5.05;;
39680;SDS011;26327;42.550;23.120;2023-07-20T13:43:40;9.68;;;4.65;;
39680;SDS011;26327;42.550;23.120;2023-07-20T13:46:05;11.25;;;4.53;;
39680;SDS011;26327;42.550;23.120;2023-07-20T13:48:31;7.13;;;3.90;;
39680;SDS011;26327;42.550;23.120;2023-07-20T13:50:56;9.60;;;4.40;;
39680;SDS011;26327;42.550;23.120;2023-07-20T13:53:21;9.27;;;4.15;;
39680;SDS011;26327;42.550;23.120;2023-07-20T13:55:47;11.43;;;4.30;;
39680;SDS011;26327;42.550;23.120;2023-07-20T13:58:13;9.77;;;4.40;;
39680;SDS011;26327;42.550;23.120;2023-07-20T14:00:39;7.57;;;4.00;;
39680;SDS011;26327;42.550;23.120;2023-07-20T14:03:04;11.55;;;4.57;;
39680;SDS011;26327;42.550;23.120;2023-07-20T14:05:30;9.95;;;3.83;;
39680;SDS011;26327;42.550;23.120;2023-07-20T14:07:55;8.90;;;4.18;;
39680;SDS011;26327;42.550;23.120;2023-07-20T14:10:20;8.73;;;4.07;;
39680;SDS011;26327;42.550;23.120;2023-07-20T14:12:46;10.55;;;4.00;;
39680;SDS011;26327;42.550;23.120;2023-07-20T14:15:11;5.97;;;3.40;;
39680;SDS011;26327;42.550;23.120;2023-07-20T14:17:37;7.63;;;3.83;;
39680;SDS011;26327;42.550;23.120;2023-07-20T14:20:02;10.95;;;4.07;;
39680;SDS011;26327;42.550;23.120;2023-07-20T14:22:31;8.63;;;3.50;;
39680;SDS011;26327;42.550;23.120;2023-07-20T14:24:57;10.63;;;3.72;;
39680;SDS011;26327;42.550;23.120;2023-07-20T14:27:22;11.82;;;4.03;;
39680;SDS011;26327;42.550;23.120;2023-07-20T14:29:47;9.48;;;3.63;;
39680;SDS011;26327;42.550;23.120;2023-07-20T14:32:13;9.30;;;3.38;;
39680;SDS011;26327;42.550;23.120;2023-07-20T14:34:38;6.47;;;3.25;;
39680;SDS011;26327;42.550;23.120;2023-07-20T14:37:05;8.65;;;3.60;;
39680;SDS011;26327;42.550;23.120;2023-07-20T14:39:31;6.20;;;3.22;;
39680;SDS011;26327;42.550;23.120;2023-07-20T14:41:57;10.77;;;3.42;;
39680;SDS011;26327;42.550;23.120;2023-07-20T14:44:22;11.23;;;5.95;;
39680;SDS011;26327;42.550;23.120;2023-07-20T14:46:48;7.43;;;3.75;;
39680;SDS011;26327;42.550;23.120;2023-07-20T14:49:13;9.98;;;3.60;;
39680;SDS011;26327;42.550;23.120;2023-07-20T14:51:39;8.45;;;3.20;;
39680;SDS011;26327;42.550;23.120;2023-07-20T14:54:08;13.23;;;4.18;;
39680;SDS011;26327;42.550;23.120;2023-07-20T14:56:34;9.38;;;3.53;;
39680;SDS011;26327;42.550;23.120;2023-07-20T14:59:00;18.42;;;6.20;;
39680;SDS011;26327;42.550;23.120;2023-07-20T15:01:26;7.93;;;3.80;;
39680;SDS011;26327;42.550;23.120;2023-07-20T15:03:51;10.52;;;3.25;;
39680;SDS011;26327;42.550;23.120;2023-07-20T15:06:18;12.50;;;4.15;;
39680;SDS011;26327;42.550;23.120;2023-07-20T15:08:44;16.00;;;8.18;;
39680;SDS011;26327;42.550;23.120;2023-07-20T15:11:09;8.55;;;3.22;;
39680;SDS011;26327;42.550;23.120;2023-07-20T15:13:35;7.72;;;4.20;;